sensor_id;sensor_type;location;lat;lon;timestamp;temperature;humidity
33943;DHT22;66763;47.856;17.462;2023-12-07T00:01:54;12.20;50.40
33943;DHT22;66763;47.856;17.462;2023-12-07T00:04:19;12.10;50.30
33943;DHT22;66763;47.856;17.462;2023-12-07T00:06:45;12.10;50.90
33943;DHT22;66763;47.856;17.462;2023-12-07T00:09:10;12.10;50.30
33943;DHT22;66763;47.856;17.462;2023-12-07T00:11:36;12.10;50.40
33943;DHT22;66763;47.856;17.462;2023-12-07T00:14:01;12.10;50.40
33943;DHT22;66763;47.856;17.462;2023-12-07T00:16:27;12.00;50.40
33943;DHT22;66763;47.856;17.462;2023-12-07T00:18:52;12.00;50.40
33943;DHT22;66763;47.856;17.462;2023-12-07T00:21:18;12.00;50.40
33943;DHT22;66763;47.856;17.462;2023-12-07T00:23:44;12.00;50.50
33943;DHT22;66763;47.856;17.462;2023-12-07T00:26:09;12.00;50.50
33943;DHT22;66763;47.856;17.462;2023-12-07T00:28:36;12.00;50.50
33943;DHT22;66763;47.856;17.462;2023-12-07T00:31:01;12.00;50.50
33943;DHT22;66763;47.856;17.462;2023-12-07T00:33:27;11.90;50.40
33943;DHT22;66763;47.856;17.462;2023-12-07T00:35:53;11.90;50.50
33943;DHT22;66763;47.856;17.462;2023-12-07T00:38:18;12.00;50.60
33943;DHT22;66763;47.856;17.462;2023-12-07T00:40:44;11.90;50.60
33943;DHT22;66763;47.856;17.462;2023-12-07T00:43:09;11.90;50.50
33943;DHT22;66763;47.856;17.462;2023-12-07T00:45:35;12.00;50.60
33943;DHT22;66763;47.856;17.462;2023-12-07T00:48:00;11.90;50.50
33943;DHT22;66763;47.856;17.462;2023-12-07T00:50:26;11.90;50.50
33943;DHT22;66763;47.856;17.462;2023-12-07T00:52:51;12.00;50.60
33943;DHT22;66763;47.856;17.462;2023-12-07T00:55:17;11.90;50.60
33943;DHT22;66763;47.856;17.462;2023-12-07T00:57:42;11.90;50.10
33943;DHT22;66763;47.856;17.462;2023-12-07T01:00:08;11.90;50.60
33943;DHT22;66763;47.856;17.462;2023-12-07T01:02:33;11.80;50.50
33943;DHT22;66763;47.856;17.462;2023-12-07T01:04:59;11.90;50.60
33943;DHT22;66763;47.856;17.462;2023-12-07T01:07:25;11.90;50.60
33943;DHT22;66763;47.856;17.462;2023-12-07T01:09:50;11.80;50.60
33943;DHT22;66763;47.856;17.462;2023-12-07T01:12:15;11.80;50.60
33943;DHT22;66763;47.856;17.462;2023-12-07T01:14:41;11.90;50.60
33943;DHT22;66763;47.856;17.462;2023-12-07T01:17:06;11.90;50.70
33943;DHT22;66763;47.856;17.462;2023-12-07T01:19:32;11.80;50.50
33943;DHT22;66763;47.856;17.462;2023-12-07T01:21:57;11.80;50.50
33943;DHT22;66763;47.856;17.462;2023-12-07T01:24:23;11.80;50.10
33943;DHT22;66763;47.856;17.462;2023-12-07T01:26:48;11.80;50.60
33943;DHT22;66763;47.856;17.462;2023-12-07T01:29:14;11.80;50.60
33943;DHT22;66763;47.856;17.462;2023-12-07T01:31:40;11.80;50.60
33943;DHT22;66763;47.856;17.462;2023-12-07T01:34:05;11.80;50.60
33943;DHT22;66763;47.856;17.462;2023-12-07T01:36:31;11.70;50.60
33943;DHT22;66763;47.856;17.462;2023-12-07T01:38:56;11.70;50.60
33943;DHT22;66763;47.856;17.462;2023-12-07T01:41:21;11.80;50.20
33943;DHT22;66763;47.856;17.462;2023-12-07T01:43:47;11.70;50.50
33943;DHT22;66763;47.856;17.462;2023-12-07T01:46:13;11.80;50.60
33943;DHT22;66763;47.856;17.462;2023-12-07T01:48:38;11.70;50.50
33943;DHT22;66763;47.856;17.462;2023-12-07T01:51:04;11.80;50.50
33943;DHT22;66763;47.856;17.462;2023-12-07T01:53:30;11.80;50.50
33943;DHT22;66763;47.856;17.462;2023-12-07T01:55:56;11.80;50.50
33943;DHT22;66763;47.856;17.462;2023-12-07T01:58:22;11.70;50.60
33943;DHT22;66763;47.856;17.462;2023-12-07T02:00:47;11.80;50.70
33943;DHT22;66763;47.856;17.462;2023-12-07T02:03:13;11.80;50.60
33943;DHT22;66763;47.856;17.462;2023-12-07T02:05:42;11.70;50.50
33943;DHT22;66763;47.856;17.462;2023-12-07T02:08:08;11.80;50.50
33943;DHT22;66763;47.856;17.462;2023-12-07T02:10:33;11.70;50.50
33943;DHT22;66763;47.856;17.462;2023-12-07T02:12:59;11.80;50.50
33943;DHT22;66763;47.856;17.462;2023-12-07T02:15:24;11.80;50.50
33943;DHT22;66763;47.856;17.462;2023-12-07T02:20:37;11.70;50.50
33943;DHT22;66763;47.856;17.462;2023-12-07T02:23:03;11.80;50.50
33943;DHT22;66763;47.856;17.462;2023-12-07T02:25:35;11.70;50.50
33943;DHT22;66763;47.856;17.462;2023-12-07T02:28:02;11.70;50.00
33943;DHT22;66763;47.856;17.462;2023-12-07T02:30:28;11.80;50.50
33943;DHT22;66763;47.856;17.462;2023-12-07T02:32:53;11.80;50.50
33943;DHT22;66763;47.856;17.462;2023-12-07T02:35:19;11.80;50.50
33943;DHT22;66763;47.856;17.462;2023-12-07T02:37:46;11.70;50.50
33943;DHT22;66763;47.856;17.462;2023-12-07T02:40:12;11.80;50.50
33943;DHT22;66763;47.856;17.462;2023-12-07T02:42:40;11.70;50.50
33943;DHT22;66763;47.856;17.462;2023-12-07T02:45:07;11.70;50.50
33943;DHT22;66763;47.856;17.462;2023-12-07T02:47:33;11.70;50.50
33943;DHT22;66763;47.856;17.462;2023-12-07T02:49:58;11.70;50.50
33943;DHT22;66763;47.856;17.462;2023-12-07T02:52:24;11.70;51.10
33943;DHT22;66763;47.856;17.462;2023-12-07T02:54:49;11.70;50.50
33943;DHT22;66763;47.856;17.462;2023-12-07T02:57:15;11.70;50.50
33943;DHT22;66763;47.856;17.462;2023-12-07T02:59:40;11.70;50.50
33943;DHT22;66763;47.856;17.462;2023-12-07T03:02:06;11.70;50.50
33943;DHT22;66763;47.856;17.462;2023-12-07T03:04:32;11.70;50.50
33943;DHT22;66763;47.856;17.462;2023-12-07T03:06:57;11.70;50.50
33943;DHT22;66763;47.856;17.462;2023-12-07T03:09:23;11.70;50.50
33943;DHT22;66763;47.856;17.462;2023-12-07T03:11:48;11.70;50.50
33943;DHT22;66763;47.856;17.462;2023-12-07T03:14:14;11.70;50.50
33943;DHT22;66763;47.856;17.462;2023-12-07T03:16:39;11.60;50.40
33943;DHT22;66763;47.856;17.462;2023-12-07T03:19:05;11.70;50.60
33943;DHT22;66763;47.856;17.462;2023-12-07T03:21:30;11.70;50.60
33943;DHT22;66763;47.856;17.462;2023-12-07T03:23:56;11.70;50.50
33943;DHT22;66763;47.856;17.462;2023-12-07T03:26:21;11.70;50.50
33943;DHT22;66763;47.856;17.462;2023-12-07T03:28:47;11.70;50.60
33943;DHT22;66763;47.856;17.462;2023-12-07T03:31:12;11.60;50.50
33943;DHT22;66763;47.856;17.462;2023-12-07T03:33:37;11.70;50.60
33943;DHT22;66763;47.856;17.462;2023-12-07T03:36:04;11.70;50.50
33943;DHT22;66763;47.856;17.462;2023-12-07T03:38:29;11.60;50.50
33943;DHT22;66763;47.856;17.462;2023-12-07T03:40:54;11.60;50.50
33943;DHT22;66763;47.856;17.462;2023-12-07T03:43:20;11.60;50.50
33943;DHT22;66763;47.856;17.462;2023-12-07T03:45:46;11.60;50.50
33943;DHT22;66763;47.856;17.462;2023-12-07T03:48:12;11.70;50.60
33943;DHT22;66763;47.856;17.462;2023-12-07T03:50:37;11.60;50.60
33943;DHT22;66763;47.856;17.462;2023-12-07T03:53:03;11.60;50.60
33943;DHT22;66763;47.856;17.462;2023-12-07T03:55:28;11.60;50.50
33943;DHT22;66763;47.856;17.462;2023-12-07T03:57:54;11.60;50.60
33943;DHT22;66763;47.856;17.462;2023-12-07T04:00:19;11.60;50.50
33943;DHT22;66763;47.856;17.462;2023-12-07T04:02:44;11.60;50.50
33943;DHT22;66763;47.856;17.462;2023-12-07T04:05:10;11.60;50.50
33943;DHT22;66763;47.856;17.462;2023-12-07T04:07:37;11.60;50.10
33943;DHT22;66763;47.856;17.462;2023-12-07T04:10:03;11.60;50.50
33943;DHT22;66763;47.856;17.462;2023-12-07T04:12:31;11.60;50.50
33943;DHT22;66763;47.856;17.462;2023-12-07T04:14:57;11.60;50.50
33943;DHT22;66763;47.856;17.462;2023-12-07T04:17:22;11.60;50.50
33943;DHT22;66763;47.856;17.462;2023-12-07T04:19:48;11.60;50.50
33943;DHT22;66763;47.856;17.462;2023-12-07T04:22:13;11.60;50.60
33943;DHT22;66763;47.856;17.462;2023-12-07T04:24:38;11.50;50.50
33943;DHT22;66763;47.856;17.462;2023-12-07T04:27:04;11.60;50.60
33943;DHT22;66763;47.856;17.462;2023-12-07T04:29:29;11.60;50.60
33943;DHT22;66763;47.856;17.462;2023-12-07T04:31:55;11.60;50.60
33943;DHT22;66763;47.856;17.462;2023-12-07T04:34:20;11.60;50.50
33943;DHT22;66763;47.856;17.462;2023-12-07T04:36:46;11.50;51.10
33943;DHT22;66763;47.856;17.462;2023-12-07T04:39:11;11.60;50.50
33943;DHT22;66763;47.856;17.462;2023-12-07T04:41:37;11.60;50.60
33943;DHT22;66763;47.856;17.462;2023-12-07T04:44:03;11.40;50.50
33943;DHT22;66763;47.856;17.462;2023-12-07T04:46:28;11.40;50.60
33943;DHT22;66763;47.856;17.462;2023-12-07T04:48:54;11.50;50.60
33943;DHT22;66763;47.856;17.462;2023-12-07T04:51:19;11.50;50.60
33943;DHT22;66763;47.856;17.462;2023-12-07T04:53:45;11.40;50.70
33943;DHT22;66763;47.856;17.462;2023-12-07T04:56:11;11.50;50.60
33943;DHT22;66763;47.856;17.462;2023-12-07T04:58:36;11.50;50.60
33943;DHT22;66763;47.856;17.462;2023-12-07T05:01:02;11.60;50.60
33943;DHT22;66763;47.856;17.462;2023-12-07T05:03:29;11.50;50.50
33943;DHT22;66763;47.856;17.462;2023-12-07T05:05:54;11.50;50.50
33943;DHT22;66763;47.856;17.462;2023-12-07T05:08:20;11.50;50.60
33943;DHT22;66763;47.856;17.462;2023-12-07T05:10:45;11.50;50.60
33943;DHT22;66763;47.856;17.462;2023-12-07T05:13:11;11.60;50.70
33943;DHT22;66763;47.856;17.462;2023-12-07T05:15:37;11.50;50.70
33943;DHT22;66763;47.856;17.462;2023-12-07T05:18:03;11.50;50.70
33943;DHT22;66763;47.856;17.462;2023-12-07T05:20:28;11.40;50.70
33943;DHT22;66763;47.856;17.462;2023-12-07T05:22:54;11.50;50.60
33943;DHT22;66763;47.856;17.462;2023-12-07T05:25:20;11.50;50.70
33943;DHT22;66763;47.856;17.462;2023-12-07T05:27:45;11.50;50.70
33943;DHT22;66763;47.856;17.462;2023-12-07T05:30:11;11.50;50.70
33943;DHT22;66763;47.856;17.462;2023-12-07T05:32:37;11.40;50.70
33943;DHT22;66763;47.856;17.462;2023-12-07T05:35:02;11.40;50.70
33943;DHT22;66763;47.856;17.462;2023-12-07T05:37:28;11.50;50.70
33943;DHT22;66763;47.856;17.462;2023-12-07T05:39:54;11.50;50.20
33943;DHT22;66763;47.856;17.462;2023-12-07T05:42:20;11.40;50.80
33943;DHT22;66763;47.856;17.462;2023-12-07T05:44:45;11.50;50.70
33943;DHT22;66763;47.856;17.462;2023-12-07T05:47:11;11.50;50.60
33943;DHT22;66763;47.856;17.462;2023-12-07T05:49:36;11.40;50.60
33943;DHT22;66763;47.856;17.462;2023-12-07T05:52:02;11.40;50.70
33943;DHT22;66763;47.856;17.462;2023-12-07T05:54:28;11.40;50.70
33943;DHT22;66763;47.856;17.462;2023-12-07T05:56:53;11.40;50.80
33943;DHT22;66763;47.856;17.462;2023-12-07T05:59:19;11.40;50.60
33943;DHT22;66763;47.856;17.462;2023-12-07T06:01:44;11.40;50.70
33943;DHT22;66763;47.856;17.462;2023-12-07T06:04:10;11.30;50.60
33943;DHT22;66763;47.856;17.462;2023-12-07T06:06:38;11.40;50.80
33943;DHT22;66763;47.856;17.462;2023-12-07T06:09:04;11.40;50.70
33943;DHT22;66763;47.856;17.462;2023-12-07T06:11:31;11.40;50.70
33943;DHT22;66763;47.856;17.462;2023-12-07T06:13:56;11.40;50.70
33943;DHT22;66763;47.856;17.462;2023-12-07T06:16:24;11.50;50.50
33943;DHT22;66763;47.856;17.462;2023-12-07T06:18:50;11.60;50.40
33943;DHT22;66763;47.856;17.462;2023-12-07T06:21:16;11.70;50.30
33943;DHT22;66763;47.856;17.462;2023-12-07T06:23:41;11.90;50.10
33943;DHT22;66763;47.856;17.462;2023-12-07T06:26:07;12.00;49.90
33943;DHT22;66763;47.856;17.462;2023-12-07T06:28:32;12.10;49.90
33943;DHT22;66763;47.856;17.462;2023-12-07T06:31:03;12.20;49.80
33943;DHT22;66763;47.856;17.462;2023-12-07T06:33:29;12.30;49.70
33943;DHT22;66763;47.856;17.462;2023-12-07T06:35:55;12.30;49.50
33943;DHT22;66763;47.856;17.462;2023-12-07T06:38:20;12.40;49.40
33943;DHT22;66763;47.856;17.462;2023-12-07T06:40:45;12.40;48.70
33943;DHT22;66763;47.856;17.462;2023-12-07T06:43:11;12.50;49.30
33943;DHT22;66763;47.856;17.462;2023-12-07T06:45:36;12.60;49.30
33943;DHT22;66763;47.856;17.462;2023-12-07T06:48:02;12.60;49.20
33943;DHT22;66763;47.856;17.462;2023-12-07T06:50:27;12.70;49.20
33943;DHT22;66763;47.856;17.462;2023-12-07T06:52:53;12.80;49.10
33943;DHT22;66763;47.856;17.462;2023-12-07T06:55:18;12.80;49.00
33943;DHT22;66763;47.856;17.462;2023-12-07T06:57:44;12.80;49.00
33943;DHT22;66763;47.856;17.462;2023-12-07T07:00:10;12.90;49.00
33943;DHT22;66763;47.856;17.462;2023-12-07T07:02:39;12.90;49.00
33943;DHT22;66763;47.856;17.462;2023-12-07T07:05:05;12.90;48.90
33943;DHT22;66763;47.856;17.462;2023-12-07T07:07:31;12.90;49.00
33943;DHT22;66763;47.856;17.462;2023-12-07T07:09:56;12.90;49.00
33943;DHT22;66763;47.856;17.462;2023-12-07T07:12:22;12.80;49.00
33943;DHT22;66763;47.856;17.462;2023-12-07T07:14:48;12.90;49.00
33943;DHT22;66763;47.856;17.462;2023-12-07T07:17:14;12.90;49.10
33943;DHT22;66763;47.856;17.462;2023-12-07T07:19:39;12.80;49.10
33943;DHT22;66763;47.856;17.462;2023-12-07T07:22:05;12.80;49.10
33943;DHT22;66763;47.856;17.462;2023-12-07T07:24:31;12.80;49.10
33943;DHT22;66763;47.856;17.462;2023-12-07T07:26:56;12.80;49.20
33943;DHT22;66763;47.856;17.462;2023-12-07T07:29:22;12.70;49.30
33943;DHT22;66763;47.856;17.462;2023-12-07T07:31:47;12.70;49.40
33943;DHT22;66763;47.856;17.462;2023-12-07T07:34:13;12.70;49.40
33943;DHT22;66763;47.856;17.462;2023-12-07T07:36:38;12.60;49.40
33943;DHT22;66763;47.856;17.462;2023-12-07T07:39:04;12.60;49.60
33943;DHT22;66763;47.856;17.462;2023-12-07T07:41:33;12.60;49.60
33943;DHT22;66763;47.856;17.462;2023-12-07T07:43:58;12.60;49.70
33943;DHT22;66763;47.856;17.462;2023-12-07T07:46:24;12.50;49.70
33943;DHT22;66763;47.856;17.462;2023-12-07T07:48:50;12.40;49.70
33943;DHT22;66763;47.856;17.462;2023-12-07T07:51:15;12.50;50.00
33943;DHT22;66763;47.856;17.462;2023-12-07T07:53:41;12.40;50.00
33943;DHT22;66763;47.856;17.462;2023-12-07T07:56:06;12.40;50.00
33943;DHT22;66763;47.856;17.462;2023-12-07T07:58:32;12.30;49.50
33943;DHT22;66763;47.856;17.462;2023-12-07T08:00:57;12.40;50.10
33943;DHT22;66763;47.856;17.462;2023-12-07T08:03:23;12.30;49.60
33943;DHT22;66763;47.856;17.462;2023-12-07T08:05:49;12.30;50.00
33943;DHT22;66763;47.856;17.462;2023-12-07T08:08:14;12.30;50.10
33943;DHT22;66763;47.856;17.462;2023-12-07T08:10:39;12.30;50.20
33943;DHT22;66763;47.856;17.462;2023-12-07T08:13:05;12.30;50.20
33943;DHT22;66763;47.856;17.462;2023-12-07T08:15:33;12.20;50.20
33943;DHT22;66763;47.856;17.462;2023-12-07T08:17:58;12.20;50.10
33943;DHT22;66763;47.856;17.462;2023-12-07T08:20:24;12.20;50.20
33943;DHT22;66763;47.856;17.462;2023-12-07T08:22:50;12.20;50.20
33943;DHT22;66763;47.856;17.462;2023-12-07T08:25:15;12.20;50.20
33943;DHT22;66763;47.856;17.462;2023-12-07T08:27:42;12.20;50.30
33943;DHT22;66763;47.856;17.462;2023-12-07T08:30:09;12.20;50.30
33943;DHT22;66763;47.856;17.462;2023-12-07T08:32:35;12.20;50.40
33943;DHT22;66763;47.856;17.462;2023-12-07T08:35:01;12.20;50.30
33943;DHT22;66763;47.856;17.462;2023-12-07T08:37:26;12.20;50.30
33943;DHT22;66763;47.856;17.462;2023-12-07T08:39:52;12.20;50.30
33943;DHT22;66763;47.856;17.462;2023-12-07T08:42:17;12.10;50.30
33943;DHT22;66763;47.856;17.462;2023-12-07T08:44:43;12.10;50.40
33943;DHT22;66763;47.856;17.462;2023-12-07T08:47:08;12.10;50.30
33943;DHT22;66763;47.856;17.462;2023-12-07T08:49:34;12.10;50.30
33943;DHT22;66763;47.856;17.462;2023-12-07T08:51:59;12.10;50.40
33943;DHT22;66763;47.856;17.462;2023-12-07T08:54:25;12.10;50.40
33943;DHT22;66763;47.856;17.462;2023-12-07T08:56:50;12.10;50.40
33943;DHT22;66763;47.856;17.462;2023-12-07T08:59:16;12.10;50.50
33943;DHT22;66763;47.856;17.462;2023-12-07T09:01:41;12.00;49.90
33943;DHT22;66763;47.856;17.462;2023-12-07T09:04:07;12.10;50.50
33943;DHT22;66763;47.856;17.462;2023-12-07T09:06:32;12.00;50.50
33943;DHT22;66763;47.856;17.462;2023-12-07T09:08:58;12.00;50.50
33943;DHT22;66763;47.856;17.462;2023-12-07T09:11:23;12.00;50.40
33943;DHT22;66763;47.856;17.462;2023-12-07T09:13:49;12.00;50.50
33943;DHT22;66763;47.856;17.462;2023-12-07T09:16:14;12.00;50.50
33943;DHT22;66763;47.856;17.462;2023-12-07T09:18:41;12.00;50.50
33943;DHT22;66763;47.856;17.462;2023-12-07T09:21:06;12.00;50.50
33943;DHT22;66763;47.856;17.462;2023-12-07T09:23:32;12.00;50.60
33943;DHT22;66763;47.856;17.462;2023-12-07T09:25:57;11.90;50.60
33943;DHT22;66763;47.856;17.462;2023-12-07T09:28:23;11.90;50.60
33943;DHT22;66763;47.856;17.462;2023-12-07T09:30:49;11.90;50.60
33943;DHT22;66763;47.856;17.462;2023-12-07T09:33:14;11.90;50.60
33943;DHT22;66763;47.856;17.462;2023-12-07T09:35:40;11.90;50.60
33943;DHT22;66763;47.856;17.462;2023-12-07T09:38:05;11.90;50.50
33943;DHT22;66763;47.856;17.462;2023-12-07T09:40:32;11.90;50.70
33943;DHT22;66763;47.856;17.462;2023-12-07T09:42:57;11.90;50.60
33943;DHT22;66763;47.856;17.462;2023-12-07T09:45:23;11.90;50.60
33943;DHT22;66763;47.856;17.462;2023-12-07T09:47:49;11.90;50.60
33943;DHT22;66763;47.856;17.462;2023-12-07T09:50:16;11.90;50.70
33943;DHT22;66763;47.856;17.462;2023-12-07T09:52:43;11.80;51.20
33943;DHT22;66763;47.856;17.462;2023-12-07T09:55:08;11.80;50.60
33943;DHT22;66763;47.856;17.462;2023-12-07T09:57:35;11.90;50.60
33943;DHT22;66763;47.856;17.462;2023-12-07T10:00:02;11.80;50.70
33943;DHT22;66763;47.856;17.462;2023-12-07T10:02:27;11.80;50.70
33943;DHT22;66763;47.856;17.462;2023-12-07T10:05:05;11.80;50.20
33943;DHT22;66763;47.856;17.462;2023-12-07T10:07:34;11.80;50.70
33943;DHT22;66763;47.856;17.462;2023-12-07T10:10:01;11.80;50.70
33943;DHT22;66763;47.856;17.462;2023-12-07T10:12:29;11.80;50.70
33943;DHT22;66763;47.856;17.462;2023-12-07T10:14:54;11.70;50.70
33943;DHT22;66763;47.856;17.462;2023-12-07T10:17:20;11.80;50.70
33943;DHT22;66763;47.856;17.462;2023-12-07T10:19:45;11.80;50.60
33943;DHT22;66763;47.856;17.462;2023-12-07T10:22:14;11.80;50.70
33943;DHT22;66763;47.856;17.462;2023-12-07T10:24:40;11.80;50.60
33943;DHT22;66763;47.856;17.462;2023-12-07T10:27:06;11.80;50.70
33943;DHT22;66763;47.856;17.462;2023-12-07T10:29:35;11.70;50.70
33943;DHT22;66763;47.856;17.462;2023-12-07T10:32:01;11.70;50.70
33943;DHT22;66763;47.856;17.462;2023-12-07T10:34:28;11.70;50.70
33943;DHT22;66763;47.856;17.462;2023-12-07T10:36:53;11.80;50.70
33943;DHT22;66763;47.856;17.462;2023-12-07T10:39:21;11.80;50.70
33943;DHT22;66763;47.856;17.462;2023-12-07T10:41:49;11.70;50.60
33943;DHT22;66763;47.856;17.462;2023-12-07T10:44:17;11.70;51.20
33943;DHT22;66763;47.856;17.462;2023-12-07T10:46:43;11.70;50.60
33943;DHT22;66763;47.856;17.462;2023-12-07T10:49:11;11.70;50.70
33943;DHT22;66763;47.856;17.462;2023-12-07T10:51:41;11.70;50.70
33943;DHT22;66763;47.856;17.462;2023-12-07T10:54:07;11.70;50.20
33943;DHT22;66763;47.856;17.462;2023-12-07T10:56:42;11.70;50.70
33943;DHT22;66763;47.856;17.462;2023-12-07T10:59:12;11.70;50.70
33943;DHT22;66763;47.856;17.462;2023-12-07T11:01:38;11.70;50.60
33943;DHT22;66763;47.856;17.462;2023-12-07T11:04:05;11.70;50.60
33943;DHT22;66763;47.856;17.462;2023-12-07T11:06:31;11.70;50.20
33943;DHT22;66763;47.856;17.462;2023-12-07T11:08:58;11.70;50.70
33943;DHT22;66763;47.856;17.462;2023-12-07T11:11:27;11.80;50.70
33943;DHT22;66763;47.856;17.462;2023-12-07T11:13:57;11.60;50.60
33943;DHT22;66763;47.856;17.462;2023-12-07T11:16:36;11.70;50.70
33943;DHT22;66763;47.856;17.462;2023-12-07T11:19:04;11.70;50.70
33943;DHT22;66763;47.856;17.462;2023-12-07T11:21:30;11.70;50.70
33943;DHT22;66763;47.856;17.462;2023-12-07T11:23:59;11.70;50.60
33943;DHT22;66763;47.856;17.462;2023-12-07T11:26:24;11.60;50.60
33943;DHT22;66763;47.856;17.462;2023-12-07T11:28:50;11.70;50.60
33943;DHT22;66763;47.856;17.462;2023-12-07T11:31:16;11.70;50.60
33943;DHT22;66763;47.856;17.462;2023-12-07T11:33:42;11.70;50.70
33943;DHT22;66763;47.856;17.462;2023-12-07T11:36:10;11.70;50.60
33943;DHT22;66763;47.856;17.462;2023-12-07T11:38:36;11.70;50.60
33943;DHT22;66763;47.856;17.462;2023-12-07T11:41:01;11.80;50.70
33943;DHT22;66763;47.856;17.462;2023-12-07T11:46:03;11.60;50.70
33943;DHT22;66763;47.856;17.462;2023-12-07T11:48:29;11.70;50.60
33943;DHT22;66763;47.856;17.462;2023-12-07T11:53:30;11.70;50.70
33943;DHT22;66763;47.856;17.462;2023-12-07T11:55:59;11.60;50.60
33943;DHT22;66763;47.856;17.462;2023-12-07T11:58:25;11.70;50.60
33943;DHT22;66763;47.856;17.462;2023-12-07T12:00:51;11.70;50.70
33943;DHT22;66763;47.856;17.462;2023-12-07T12:03:17;11.60;50.50
33943;DHT22;66763;47.856;17.462;2023-12-07T12:05:42;11.70;50.60
33943;DHT22;66763;47.856;17.462;2023-12-07T12:08:09;11.60;50.60
33943;DHT22;66763;47.856;17.462;2023-12-07T12:10:35;11.60;50.10
33943;DHT22;66763;47.856;17.462;2023-12-07T12:13:01;11.70;50.60
33943;DHT22;66763;47.856;17.462;2023-12-07T12:15:27;11.70;50.60
33943;DHT22;66763;47.856;17.462;2023-12-07T12:17:57;11.60;50.60
33943;DHT22;66763;47.856;17.462;2023-12-07T12:20:26;11.60;50.60
33943;DHT22;66763;47.856;17.462;2023-12-07T12:22:52;11.60;50.60
33943;DHT22;66763;47.856;17.462;2023-12-07T12:25:24;11.70;50.70
33943;DHT22;66763;47.856;17.462;2023-12-07T12:27:56;11.70;50.70
33943;DHT22;66763;47.856;17.462;2023-12-07T12:30:22;11.60;50.60
33943;DHT22;66763;47.856;17.462;2023-12-07T12:32:50;11.60;51.20
33943;DHT22;66763;47.856;17.462;2023-12-07T12:35:16;11.50;50.60
33943;DHT22;66763;47.856;17.462;2023-12-07T12:37:42;11.60;50.70
33943;DHT22;66763;47.856;17.462;2023-12-07T12:40:11;11.50;50.60
33943;DHT22;66763;47.856;17.462;2023-12-07T12:42:38;11.60;50.70
33943;DHT22;66763;47.856;17.462;2023-12-07T12:45:07;11.60;50.60
33943;DHT22;66763;47.856;17.462;2023-12-07T12:47:33;11.60;50.70
33943;DHT22;66763;47.856;17.462;2023-12-07T12:50:00;11.60;50.70
33943;DHT22;66763;47.856;17.462;2023-12-07T12:52:26;11.50;50.60
33943;DHT22;66763;47.856;17.462;2023-12-07T12:54:55;11.50;50.70
33943;DHT22;66763;47.856;17.462;2023-12-07T12:57:20;11.50;50.70
33943;DHT22;66763;47.856;17.462;2023-12-07T12:59:46;11.50;50.70
33943;DHT22;66763;47.856;17.462;2023-12-07T13:02:13;11.60;50.70
33943;DHT22;66763;47.856;17.462;2023-12-07T13:04:39;11.50;50.10
33943;DHT22;66763;47.856;17.462;2023-12-07T13:07:05;11.50;50.70
33943;DHT22;66763;47.856;17.462;2023-12-07T13:09:30;11.60;50.70
33943;DHT22;66763;47.856;17.462;2023-12-07T13:11:57;11.60;50.70
33943;DHT22;66763;47.856;17.462;2023-12-07T13:14:22;11.50;50.70
33943;DHT22;66763;47.856;17.462;2023-12-07T13:16:48;11.60;50.70
33943;DHT22;66763;47.856;17.462;2023-12-07T13:19:13;11.50;50.70
33943;DHT22;66763;47.856;17.462;2023-12-07T13:21:39;11.60;50.80
33943;DHT22;66763;47.856;17.462;2023-12-07T13:24:04;11.50;50.80
33943;DHT22;66763;47.856;17.462;2023-12-07T13:26:31;11.50;50.80
33943;DHT22;66763;47.856;17.462;2023-12-07T13:28:56;11.40;50.70
33943;DHT22;66763;47.856;17.462;2023-12-07T13:31:22;11.40;50.70
33943;DHT22;66763;47.856;17.462;2023-12-07T13:33:48;11.50;50.80
33943;DHT22;66763;47.856;17.462;2023-12-07T13:36:13;11.50;50.70
33943;DHT22;66763;47.856;17.462;2023-12-07T13:38:39;11.60;50.70
33943;DHT22;66763;47.856;17.462;2023-12-07T13:41:05;11.50;50.30
33943;DHT22;66763;47.856;17.462;2023-12-07T13:43:32;11.50;50.80
33943;DHT22;66763;47.856;17.462;2023-12-07T13:45:59;11.50;50.80
33943;DHT22;66763;47.856;17.462;2023-12-07T13:48:24;11.50;50.80
33943;DHT22;66763;47.856;17.462;2023-12-07T13:50:50;11.50;50.80
33943;DHT22;66763;47.856;17.462;2023-12-07T13:53:15;11.50;50.80
33943;DHT22;66763;47.856;17.462;2023-12-07T13:55:41;11.40;50.70
33943;DHT22;66763;47.856;17.462;2023-12-07T13:58:06;11.40;50.80
33943;DHT22;66763;47.856;17.462;2023-12-07T14:00:32;11.50;50.80
33943;DHT22;66763;47.856;17.462;2023-12-07T14:02:58;11.40;50.80
33943;DHT22;66763;47.856;17.462;2023-12-07T14:05:23;11.40;50.80
33943;DHT22;66763;47.856;17.462;2023-12-07T14:07:50;11.40;50.80
33943;DHT22;66763;47.856;17.462;2023-12-07T14:10:15;11.50;50.80
33943;DHT22;66763;47.856;17.462;2023-12-07T14:12:41;11.40;50.90
33943;DHT22;66763;47.856;17.462;2023-12-07T14:15:07;11.40;50.30
33943;DHT22;66763;47.856;17.462;2023-12-07T14:17:33;11.40;50.80
33943;DHT22;66763;47.856;17.462;2023-12-07T14:20:06;11.40;50.70
33943;DHT22;66763;47.856;17.462;2023-12-07T14:22:32;11.50;50.70
33943;DHT22;66763;47.856;17.462;2023-12-07T14:24:58;11.50;50.50
33943;DHT22;66763;47.856;17.462;2023-12-07T14:27:23;11.70;50.50
33943;DHT22;66763;47.856;17.462;2023-12-07T14:29:49;11.80;50.40
33943;DHT22;66763;47.856;17.462;2023-12-07T14:32:15;11.90;50.10
33943;DHT22;66763;47.856;17.462;2023-12-07T14:34:40;12.00;50.00
33943;DHT22;66763;47.856;17.462;2023-12-07T14:37:06;12.20;50.00
33943;DHT22;66763;47.856;17.462;2023-12-07T14:39:34;12.30;49.30
33943;DHT22;66763;47.856;17.462;2023-12-07T14:41:59;12.30;49.80
33943;DHT22;66763;47.856;17.462;2023-12-07T14:44:25;12.40;49.70
33943;DHT22;66763;47.856;17.462;2023-12-07T14:46:50;12.40;49.60
33943;DHT22;66763;47.856;17.462;2023-12-07T14:49:16;12.50;49.40
33943;DHT22;66763;47.856;17.462;2023-12-07T14:51:42;12.50;49.40
33943;DHT22;66763;47.856;17.462;2023-12-07T14:54:08;12.60;49.30
33943;DHT22;66763;47.856;17.462;2023-12-07T14:56:37;12.70;49.40
33943;DHT22;66763;47.856;17.462;2023-12-07T14:59:03;12.70;49.30
33943;DHT22;66763;47.856;17.462;2023-12-07T15:01:28;12.70;49.20
33943;DHT22;66763;47.856;17.462;2023-12-07T15:03:55;12.80;49.10
33943;DHT22;66763;47.856;17.462;2023-12-07T15:06:20;12.80;49.10
33943;DHT22;66763;47.856;17.462;2023-12-07T15:08:46;12.90;49.10
33943;DHT22;66763;47.856;17.462;2023-12-07T15:11:12;12.90;49.10
33943;DHT22;66763;47.856;17.462;2023-12-07T15:13:38;12.90;49.10
33943;DHT22;66763;47.856;17.462;2023-12-07T15:16:03;12.90;49.10